sensor_id;sensor_type;location;lat;lon;timestamp;P1;durP1;ratioP1;P2;durP2;ratioP2
37559;SDS011;23398;50.928;7.084;2024-01-15T00:01:16;14.40;;;9.10;;
37559;SDS011;23398;50.928;7.084;2024-01-15T00:03:41;14.10;;;8.43;;
37559;SDS011;23398;50.928;7.084;2024-01-15T00:06:07;14.70;;;8.87;;
37559;SDS011;23398;50.928;7.084;2024-01-15T00:08:32;18.60;;;9.33;;
37559;SDS011;23398;50.928;7.084;2024-01-15T00:10:58;16.50;;;8.57;;
37559;SDS011;23398;50.928;7.084;2024-01-15T00:13:24;16.93;;;8.80;;
37559;SDS011;23398;50.928;7.084;2024-01-15T00:15:49;17.40;;;9.27;;
37559;SDS011;23398;50.928;7.084;2024-01-15T00:18:15;16.00;;;9.10;;
37559;SDS011;23398;50.928;7.084;2024-01-15T00:20:40;16.43;;;9.40;;
37559;SDS011;23398;50.928;7.084;2024-01-15T00:23:06;17.67;;;9.27;;
37559;SDS011;23398;50.928;7.084;2024-01-15T00:25:31;14.63;;;8.67;;
37559;SDS011;23398;50.928;7.084;2024-01-15T00:27:57;16.70;;;9.43;;
37559;SDS011;23398;50.928;7.084;2024-01-15T00:30:23;17.83;;;9.47;;
37559;SDS011;23398;50.928;7.084;2024-01-15T00:32:48;17.40;;;9.70;;
37559;SDS011;23398;50.928;7.084;2024-01-15T00:35:14;16.33;;;9.47;;
37559;SDS011;23398;50.928;7.084;2024-01-15T00:37:40;16.17;;;9.17;;
37559;SDS011;23398;50.928;7.084;2024-01-15T00:40:05;18.93;;;9.90;;
37559;SDS011;23398;50.928;7.084;2024-01-15T00:42:32;16.70;;;9.17;;
37559;SDS011;23398;50.928;7.084;2024-01-15T00:44:59;15.63;;;9.07;;
37559;SDS011;23398;50.928;7.084;2024-01-15T00:47:24;17.67;;;8.47;;
37559;SDS011;23398;50.928;7.084;2024-01-15T00:49:50;15.33;;;9.00;;
37559;SDS011;23398;50.928;7.084;2024-01-15T00:52:15;17.43;;;9.33;;
37559;SDS011;23398;50.928;7.084;2024-01-15T00:54:41;20.63;;;9.33;;
37559;SDS011;23398;50.928;7.084;2024-01-15T00:57:06;16.90;;;8.97;;
37559;SDS011;23398;50.928;7.084;2024-01-15T00:59:32;17.30;;;9.23;;
37559;SDS011;23398;50.928;7.084;2024-01-15T01:01:57;16.57;;;9.43;;
37559;SDS011;23398;50.928;7.084;2024-01-15T01:04:23;18.87;;;9.80;;
37559;SDS011;23398;50.928;7.084;2024-01-15T01:06:48;16.80;;;8.87;;
37559;SDS011;23398;50.928;7.084;2024-01-15T01:09:14;17.60;;;9.37;;
37559;SDS011;23398;50.928;7.084;2024-01-15T01:11:40;18.00;;;8.63;;
37559;SDS011;23398;50.928;7.084;2024-01-15T01:14:05;17.83;;;9.43;;
37559;SDS011;23398;50.928;7.084;2024-01-15T01:16:31;16.33;;;8.97;;
37559;SDS011;23398;50.928;7.084;2024-01-15T01:19:03;20.00;;;10.17;;
37559;SDS011;23398;50.928;7.084;2024-01-15T01:21:34;16.40;;;9.43;;
37559;SDS011;23398;50.928;7.084;2024-01-15T01:24:00;17.00;;;9.63;;
37559;SDS011;23398;50.928;7.084;2024-01-15T01:26:26;17.03;;;9.23;;
37559;SDS011;23398;50.928;7.084;2024-01-15T01:28:51;19.80;;;10.03;;
37559;SDS011;23398;50.928;7.084;2024-01-15T01:31:17;17.23;;;9.00;;
37559;SDS011;23398;50.928;7.084;2024-01-15T01:33:42;18.53;;;9.27;;
37559;SDS011;23398;50.928;7.084;2024-01-15T01:36:08;16.77;;;8.93;;
37559;SDS011;23398;50.928;7.084;2024-01-15T01:38:34;15.07;;;8.87;;
37559;SDS011;23398;50.928;7.084;2024-01-15T01:41:01;15.60;;;9.03;;
37559;SDS011;23398;50.928;7.084;2024-01-15T01:43:26;15.60;;;8.83;;
37559;SDS011;23398;50.928;7.084;2024-01-15T01:45:52;16.37;;;8.73;;
37559;SDS011;23398;50.928;7.084;2024-01-15T01:48:20;17.47;;;9.17;;
37559;SDS011;23398;50.928;7.084;2024-01-15T01:50:46;14.13;;;8.70;;
37559;SDS011;23398;50.928;7.084;2024-01-15T01:53:12;19.03;;;9.53;;
37559;SDS011;23398;50.928;7.084;2024-01-15T01:55:38;14.40;;;8.30;;
37559;SDS011;23398;50.928;7.084;2024-01-15T01:58:04;13.90;;;8.37;;
37559;SDS011;23398;50.928;7.084;2024-01-15T02:00:30;15.13;;;8.90;;
37559;SDS011;23398;50.928;7.084;2024-01-15T02:02:56;15.80;;;8.80;;
37559;SDS011;23398;50.928;7.084;2024-01-15T02:05:22;14.10;;;8.43;;
37559;SDS011;23398;50.928;7.084;2024-01-15T02:07:48;15.73;;;8.93;;
37559;SDS011;23398;50.928;7.084;2024-01-15T02:10:14;16.57;;;9.10;;
37559;SDS011;23398;50.928;7.084;2024-01-15T02:12:40;16.17;;;9.40;;
37559;SDS011;23398;50.928;7.084;2024-01-15T02:15:07;16.13;;;9.47;;
37559;SDS011;23398;50.928;7.084;2024-01-15T02:17:32;15.47;;;9.23;;
37559;SDS011;23398;50.928;7.084;2024-01-15T02:19:58;19.90;;;9.90;;
37559;SDS011;23398;50.928;7.084;2024-01-15T02:22:23;16.67;;;9.10;;
37559;SDS011;23398;50.928;7.084;2024-01-15T02:24:49;16.77;;;9.60;;
37559;SDS011;23398;50.928;7.084;2024-01-15T02:27:14;16.67;;;9.00;;
37559;SDS011;23398;50.928;7.084;2024-01-15T02:29:40;14.80;;;8.70;;
37559;SDS011;23398;50.928;7.084;2024-01-15T02:32:06;17.30;;;9.40;;
37559;SDS011;23398;50.928;7.084;2024-01-15T02:34:33;18.27;;;9.63;;
37559;SDS011;23398;50.928;7.084;2024-01-15T02:36:59;16.20;;;8.87;;
37559;SDS011;23398;50.928;7.084;2024-01-15T02:39:24;17.07;;;9.10;;
37559;SDS011;23398;50.928;7.084;2024-01-15T02:41:50;17.50;;;9.63;;
37559;SDS011;23398;50.928;7.084;2024-01-15T02:44:15;16.60;;;8.97;;
37559;SDS011;23398;50.928;7.084;2024-01-15T02:46:41;18.73;;;9.80;;
37559;SDS011;23398;50.928;7.084;2024-01-15T02:49:07;17.67;;;9.50;;
37559;SDS011;23398;50.928;7.084;2024-01-15T02:51:32;16.63;;;9.43;;
37559;SDS011;23398;50.928;7.084;2024-01-15T02:53:58;17.50;;;9.03;;
37559;SDS011;23398;50.928;7.084;2024-01-15T02:56:23;15.33;;;9.00;;
37559;SDS011;23398;50.928;7.084;2024-01-15T02:58:49;16.63;;;9.43;;
37559;SDS011;23398;50.928;7.084;2024-01-15T03:01:15;15.87;;;8.77;;
37559;SDS011;23398;50.928;7.084;2024-01-15T03:03:43;17.60;;;9.43;;
37559;SDS011;23398;50.928;7.084;2024-01-15T03:06:08;17.80;;;9.67;;
37559;SDS011;23398;50.928;7.084;2024-01-15T03:08:35;18.27;;;8.77;;
37559;SDS011;23398;50.928;7.084;2024-01-15T03:11:00;18.43;;;9.07;;
37559;SDS011;23398;50.928;7.084;2024-01-15T03:13:26;14.47;;;8.90;;
37559;SDS011;23398;50.928;7.084;2024-01-15T03:15:51;17.47;;;9.47;;
37559;SDS011;23398;50.928;7.084;2024-01-15T03:18:17;15.60;;;9.23;;
37559;SDS011;23398;50.928;7.084;2024-01-15T03:20:43;18.10;;;9.53;;
37559;SDS011;23398;50.928;7.084;2024-01-15T03:23:08;17.23;;;9.37;;
37559;SDS011;23398;50.928;7.084;2024-01-15T03:25:34;15.70;;;8.67;;
37559;SDS011;23398;50.928;7.084;2024-01-15T03:27:59;15.80;;;9.20;;
37559;SDS011;23398;50.928;7.084;2024-01-15T03:30:25;15.20;;;9.07;;
37559;SDS011;23398;50.928;7.084;2024-01-15T03:32:50;16.17;;;8.53;;
37559;SDS011;23398;50.928;7.084;2024-01-15T03:35:16;14.97;;;8.53;;
37559;SDS011;23398;50.928;7.084;2024-01-15T03:37:41;14.13;;;8.57;;
37559;SDS011;23398;50.928;7.084;2024-01-15T03:40:07;16.27;;;8.93;;
37559;SDS011;23398;50.928;7.084;2024-01-15T03:42:33;13.47;;;7.63;;
37559;SDS011;23398;50.928;7.084;2024-01-15T03:44:59;14.30;;;8.40;;
37559;SDS011;23398;50.928;7.084;2024-01-15T03:47:24;16.03;;;9.00;;
37559;SDS011;23398;50.928;7.084;2024-01-15T03:49:51;16.03;;;9.03;;
37559;SDS011;23398;50.928;7.084;2024-01-15T03:52:16;15.23;;;8.63;;
37559;SDS011;23398;50.928;7.084;2024-01-15T03:54:42;14.97;;;9.33;;
37559;SDS011;23398;50.928;7.084;2024-01-15T03:57:07;14.60;;;8.93;;
37559;SDS011;23398;50.928;7.084;2024-01-15T03:59:33;14.80;;;8.50;;
37559;SDS011;23398;50.928;7.084;2024-01-15T04:01:58;14.97;;;8.50;;
37559;SDS011;23398;50.928;7.084;2024-01-15T04:04:24;13.73;;;8.70;;
37559;SDS011;23398;50.928;7.084;2024-01-15T04:06:50;14.33;;;8.73;;
37559;SDS011;23398;50.928;7.084;2024-01-15T04:09:15;15.23;;;9.10;;
37559;SDS011;23398;50.928;7.084;2024-01-15T04:11:41;14.03;;;8.67;;
37559;SDS011;23398;50.928;7.084;2024-01-15T04:14:06;15.13;;;9.13;;
37559;SDS011;23398;50.928;7.084;2024-01-15T04:16:32;16.93;;;9.20;;
37559;SDS011;23398;50.928;7.084;2024-01-15T04:18:57;14.40;;;8.77;;
37559;SDS011;23398;50.928;7.084;2024-01-15T04:21:23;15.63;;;9.07;;
37559;SDS011;23398;50.928;7.084;2024-01-15T04:23:49;16.60;;;8.77;;
37559;SDS011;23398;50.928;7.084;2024-01-15T04:26:14;15.33;;;8.63;;
37559;SDS011;23398;50.928;7.084;2024-01-15T04:28:40;14.60;;;8.17;;
37559;SDS011;23398;50.928;7.084;2024-01-15T04:31:06;15.10;;;8.63;;
37559;SDS011;23398;50.928;7.084;2024-01-15T04:33:31;15.27;;;8.60;;
37559;SDS011;23398;50.928;7.084;2024-01-15T04:35:57;13.40;;;8.47;;
37559;SDS011;23398;50.928;7.084;2024-01-15T04:38:27;14.30;;;8.40;;
37559;SDS011;23398;50.928;7.084;2024-01-15T04:40:52;14.57;;;8.53;;
37559;SDS011;23398;50.928;7.084;2024-01-15T04:43:18;13.33;;;8.33;;
37559;SDS011;23398;50.928;7.084;2024-01-15T04:45:43;15.27;;;8.90;;
37559;SDS011;23398;50.928;7.084;2024-01-15T04:48:09;14.50;;;8.50;;
37559;SDS011;23398;50.928;7.084;2024-01-15T04:50:34;13.83;;;7.57;;
37559;SDS011;23398;50.928;7.084;2024-01-15T04:53:00;13.10;;;7.70;;
37559;SDS011;23398;50.928;7.084;2024-01-15T04:55:25;14.40;;;7.97;;
37559;SDS011;23398;50.928;7.084;2024-01-15T04:57:51;13.40;;;8.07;;
37559;SDS011;23398;50.928;7.084;2024-01-15T05:00:17;14.77;;;7.87;;
37559;SDS011;23398;50.928;7.084;2024-01-15T05:02:42;12.90;;;7.67;;
37559;SDS011;23398;50.928;7.084;2024-01-15T05:05:08;12.73;;;7.72;;
37559;SDS011;23398;50.928;7.084;2024-01-15T05:07:33;14.23;;;8.00;;
37559;SDS011;23398;50.928;7.084;2024-01-15T05:09:59;12.93;;;7.40;;
37559;SDS011;23398;50.928;7.084;2024-01-15T05:12:25;11.70;;;7.20;;
37559;SDS011;23398;50.928;7.084;2024-01-15T05:14:50;13.73;;;8.00;;
37559;SDS011;23398;50.928;7.084;2024-01-15T05:17:16;12.73;;;7.53;;
37559;SDS011;23398;50.928;7.084;2024-01-15T05:19:41;11.87;;;6.93;;
37559;SDS011;23398;50.928;7.084;2024-01-15T05:22:07;11.77;;;7.40;;
37559;SDS011;23398;50.928;7.084;2024-01-15T05:24:32;12.50;;;7.03;;
37559;SDS011;23398;50.928;7.084;2024-01-15T05:26:58;10.97;;;6.53;;
37559;SDS011;23398;50.928;7.084;2024-01-15T05:29:24;9.80;;;7.03;;
37559;SDS011;23398;50.928;7.084;2024-01-15T05:31:49;10.00;;;6.70;;
37559;SDS011;23398;50.928;7.084;2024-01-15T05:34:15;12.67;;;7.27;;
37559;SDS011;23398;50.928;7.084;2024-01-15T05:36:40;10.40;;;6.82;;
37559;SDS011;23398;50.928;7.084;2024-01-15T05:39:06;11.33;;;6.93;;
37559;SDS011;23398;50.928;7.084;2024-01-15T05:41:32;11.43;;;6.63;;
37559;SDS011;23398;50.928;7.084;2024-01-15T05:43:58;11.67;;;6.30;;
37559;SDS011;23398;50.928;7.084;2024-01-15T05:46:23;8.80;;;6.03;;
37559;SDS011;23398;50.928;7.084;2024-01-15T05:48:49;10.63;;;6.63;;
37559;SDS011;23398;50.928;7.084;2024-01-15T05:51:14;11.10;;;6.23;;
37559;SDS011;23398;50.928;7.084;2024-01-15T05:53:40;10.27;;;6.27;;
37559;SDS011;23398;50.928;7.084;2024-01-15T05:56:07;10.53;;;6.23;;
37559;SDS011;23398;50.928;7.084;2024-01-15T05:58:33;11.27;;;6.43;;
37559;SDS011;23398;50.928;7.084;2024-01-15T06:00:58;9.13;;;5.80;;
37559;SDS011;23398;50.928;7.084;2024-01-15T06:03:24;9.93;;;5.97;;
37559;SDS011;23398;50.928;7.084;2024-01-15T06:05:50;10.20;;;6.05;;
37559;SDS011;23398;50.928;7.084;2024-01-15T06:08:15;10.77;;;5.97;;
37559;SDS011;23398;50.928;7.084;2024-01-15T06:10:41;8.37;;;5.17;;
37559;SDS011;23398;50.928;7.084;2024-01-15T06:13:06;8.20;;;5.40;;
37559;SDS011;23398;50.928;7.084;2024-01-15T06:15:32;13.60;;;5.73;;
37559;SDS011;23398;50.928;7.084;2024-01-15T06:17:57;10.40;;;5.77;;
37559;SDS011;23398;50.928;7.084;2024-01-15T06:20:23;8.60;;;5.43;;
37559;SDS011;23398;50.928;7.084;2024-01-15T06:22:49;11.27;;;5.43;;
37559;SDS011;23398;50.928;7.084;2024-01-15T06:25:14;9.37;;;5.50;;
37559;SDS011;23398;50.928;7.084;2024-01-15T06:27:40;8.03;;;5.30;;
37559;SDS011;23398;50.928;7.084;2024-01-15T06:30:05;8.57;;;5.40;;
37559;SDS011;23398;50.928;7.084;2024-01-15T06:32:31;8.90;;;5.63;;
37559;SDS011;23398;50.928;7.084;2024-01-15T06:34:57;7.63;;;5.23;;
37559;SDS011;23398;50.928;7.084;2024-01-15T06:37:22;8.07;;;5.80;;
37559;SDS011;23398;50.928;7.084;2024-01-15T06:39:48;8.77;;;5.80;;
37559;SDS011;23398;50.928;7.084;2024-01-15T06:42:13;8.93;;;5.60;;
37559;SDS011;23398;50.928;7.084;2024-01-15T06:44:39;8.57;;;5.80;;
37559;SDS011;23398;50.928;7.084;2024-01-15T06:47:05;8.40;;;5.70;;
37559;SDS011;23398;50.928;7.084;2024-01-15T06:49:30;8.87;;;5.73;;
37559;SDS011;23398;50.928;7.084;2024-01-15T06:51:56;10.13;;;6.67;;
37559;SDS011;23398;50.928;7.084;2024-01-15T06:54:21;8.77;;;5.53;;
37559;SDS011;23398;50.928;7.084;2024-01-15T06:56:48;8.87;;;5.20;;
37559;SDS011;23398;50.928;7.084;2024-01-15T06:59:14;10.57;;;5.70;;
37559;SDS011;23398;50.928;7.084;2024-01-15T07:01:39;10.90;;;5.80;;
37559;SDS011;23398;50.928;7.084;2024-01-15T07:04:05;9.43;;;6.20;;
37559;SDS011;23398;50.928;7.084;2024-01-15T07:06:31;9.50;;;6.13;;
37559;SDS011;23398;50.928;7.084;2024-01-15T07:08:56;9.53;;;6.60;;
37559;SDS011;23398;50.928;7.084;2024-01-15T07:11:22;10.33;;;6.17;;
37559;SDS011;23398;50.928;7.084;2024-01-15T07:13:48;9.47;;;6.70;;
37559;SDS011;23398;50.928;7.084;2024-01-15T07:16:14;11.13;;;6.33;;
37559;SDS011;23398;50.928;7.084;2024-01-15T07:18:40;10.80;;;6.73;;
37559;SDS011;23398;50.928;7.084;2024-01-15T07:21:06;9.73;;;6.27;;
37559;SDS011;23398;50.928;7.084;2024-01-15T07:23:31;9.93;;;5.90;;
37559;SDS011;23398;50.928;7.084;2024-01-15T07:25:57;10.10;;;6.88;;
37559;SDS011;23398;50.928;7.084;2024-01-15T07:28:23;7.77;;;5.97;;
37559;SDS011;23398;50.928;7.084;2024-01-15T07:30:48;8.38;;;5.68;;
37559;SDS011;23398;50.928;7.084;2024-01-15T07:33:14;8.80;;;5.65;;
37559;SDS011;23398;50.928;7.084;2024-01-15T07:35:39;10.87;;;6.33;;
37559;SDS011;23398;50.928;7.084;2024-01-15T07:38:05;9.80;;;6.17;;
37559;SDS011;23398;50.928;7.084;2024-01-15T07:40:30;7.32;;;5.53;;
37559;SDS011;23398;50.928;7.084;2024-01-15T07:42:56;7.30;;;5.63;;
37559;SDS011;23398;50.928;7.084;2024-01-15T07:45:21;8.17;;;5.60;;
37559;SDS011;23398;50.928;7.084;2024-01-15T07:47:47;8.73;;;5.73;;
37559;SDS011;23398;50.928;7.084;2024-01-15T07:50:13;10.98;;;5.97;;
37559;SDS011;23398;50.928;7.084;2024-01-15T07:52:39;9.23;;;5.97;;
37559;SDS011;23398;50.928;7.084;2024-01-15T07:55:07;8.70;;;6.53;;
37559;SDS011;23398;50.928;7.084;2024-01-15T07:57:33;9.75;;;6.63;;
37559;SDS011;23398;50.928;7.084;2024-01-15T07:59:58;9.33;;;6.30;;
37559;SDS011;23398;50.928;7.084;2024-01-15T08:02:24;9.80;;;6.32;;
37559;SDS011;23398;50.928;7.084;2024-01-15T08:04:50;12.45;;;6.82;;
37559;SDS011;23398;50.928;7.084;2024-01-15T08:07:15;11.40;;;6.32;;
37559;SDS011;23398;50.928;7.084;2024-01-15T08:09:41;11.50;;;6.40;;
37559;SDS011;23398;50.928;7.084;2024-01-15T08:12:06;8.37;;;6.30;;
37559;SDS011;23398;50.928;7.084;2024-01-15T08:14:32;11.37;;;6.73;;
37559;SDS011;23398;50.928;7.084;2024-01-15T08:16:58;12.20;;;6.78;;
37559;SDS011;23398;50.928;7.084;2024-01-15T08:19:24;10.65;;;7.28;;
37559;SDS011;23398;50.928;7.084;2024-01-15T08:21:49;10.93;;;7.30;;
37559;SDS011;23398;50.928;7.084;2024-01-15T08:24:15;10.35;;;7.20;;
37559;SDS011;23398;50.928;7.084;2024-01-15T08:26:41;11.45;;;7.47;;
37559;SDS011;23398;50.928;7.084;2024-01-15T08:29:07;11.13;;;7.43;;
37559;SDS011;23398;50.928;7.084;2024-01-15T08:31:33;10.43;;;7.03;;
37559;SDS011;23398;50.928;7.084;2024-01-15T08:33:58;11.33;;;7.47;;
37559;SDS011;23398;50.928;7.084;2024-01-15T08:36:24;13.73;;;7.72;;
37559;SDS011;23398;50.928;7.084;2024-01-15T08:38:50;13.40;;;7.90;;
37559;SDS011;23398;50.928;7.084;2024-01-15T08:41:16;10.13;;;7.28;;
37559;SDS011;23398;50.928;7.084;2024-01-15T08:43:41;11.90;;;7.35;;
37559;SDS011;23398;50.928;7.084;2024-01-15T08:46:07;10.98;;;7.18;;
37559;SDS011;23398;50.928;7.084;2024-01-15T08:48:32;11.93;;;7.43;;
37559;SDS011;23398;50.928;7.084;2024-01-15T08:50:58;12.40;;;7.33;;
37559;SDS011;23398;50.928;7.084;2024-01-15T08:53:23;12.40;;;7.40;;
37559;SDS011;23398;50.928;7.084;2024-01-15T08:55:49;11.52;;;7.18;;
37559;SDS011;23398;50.928;7.084;2024-01-15T08:58:15;8.90;;;6.97;;
37559;SDS011;23398;50.928;7.084;2024-01-15T09:00:40;11.52;;;7.43;;
37559;SDS011;23398;50.928;7.084;2024-01-15T09:03:06;11.73;;;7.53;;
37559;SDS011;23398;50.928;7.084;2024-01-15T09:05:33;10.50;;;6.97;;
37559;SDS011;23398;50.928;7.084;2024-01-15T09:07:59;9.07;;;6.80;;
37559;SDS011;23398;50.928;7.084;2024-01-15T09:10:24;9.77;;;6.68;;
37559;SDS011;23398;50.928;7.084;2024-01-15T09:12:50;9.15;;;6.45;;
37559;SDS011;23398;50.928;7.084;2024-01-15T09:15:16;9.57;;;6.60;;
37559;SDS011;23398;50.928;7.084;2024-01-15T09:17:41;10.80;;;6.80;;
37559;SDS011;23398;50.928;7.084;2024-01-15T09:20:08;10.90;;;6.90;;
37559;SDS011;23398;50.928;7.084;2024-01-15T09:22:34;9.27;;;6.22;;
37559;SDS011;23398;50.928;7.084;2024-01-15T09:25:00;10.32;;;6.18;;
37559;SDS011;23398;50.928;7.084;2024-01-15T09:27:26;9.48;;;6.30;;
37559;SDS011;23398;50.928;7.084;2024-01-15T09:29:52;9.63;;;6.70;;
37559;SDS011;23398;50.928;7.084;2024-01-15T09:32:18;8.45;;;5.55;;
37559;SDS011;23398;50.928;7.084;2024-01-15T09:34:43;8.97;;;5.67;;
37559;SDS011;23398;50.928;7.084;2024-01-15T09:37:11;7.50;;;5.30;;
37559;SDS011;23398;50.928;7.084;2024-01-15T09:39:37;7.87;;;5.53;;
37559;SDS011;23398;50.928;7.084;2024-01-15T09:42:03;7.70;;;5.05;;
37559;SDS011;23398;50.928;7.084;2024-01-15T09:44:29;8.80;;;5.15;;
37559;SDS011;23398;50.928;7.084;2024-01-15T09:46:55;7.00;;;4.38;;
37559;SDS011;23398;50.928;7.084;2024-01-15T09:49:22;5.23;;;4.47;;
37559;SDS011;23398;50.928;7.084;2024-01-15T09:51:48;6.07;;;4.20;;
37559;SDS011;23398;50.928;7.084;2024-01-15T09:54:13;7.00;;;4.23;;
37559;SDS011;23398;50.928;7.084;2024-01-15T09:56:42;6.63;;;4.23;;
37559;SDS011;23398;50.928;7.084;2024-01-15T09:59:10;5.43;;;4.07;;
37559;SDS011;23398;50.928;7.084;2024-01-15T10:01:39;5.27;;;3.93;;
37559;SDS011;23398;50.928;7.084;2024-01-15T10:04:06;5.27;;;4.07;;
37559;SDS011;23398;50.928;7.084;2024-01-15T10:06:31;5.72;;;3.90;;
37559;SDS011;23398;50.928;7.084;2024-01-15T10:08:58;4.90;;;4.20;;
37559;SDS011;23398;50.928;7.084;2024-01-15T10:11:24;5.23;;;3.73;;
37559;SDS011;23398;50.928;7.084;2024-01-15T10:13:50;5.47;;;4.37;;
37559;SDS011;23398;50.928;7.084;2024-01-15T10:16:18;5.40;;;3.63;;
37559;SDS011;23398;50.928;7.084;2024-01-15T10:18:44;4.53;;;3.53;;
37559;SDS011;23398;50.928;7.084;2024-01-15T10:21:09;4.93;;;3.50;;
37559;SDS011;23398;50.928;7.084;2024-01-15T10:23:35;4.03;;;3.38;;
37559;SDS011;23398;50.928;7.084;2024-01-15T10:26:01;4.03;;;3.20;;
37559;SDS011;23398;50.928;7.084;2024-01-15T10:28:27;5.00;;;3.23;;
37559;SDS011;23398;50.928;7.084;2024-01-15T10:30:55;3.60;;;3.00;;
37559;SDS011;23398;50.928;7.084;2024-01-15T10:33:24;4.70;;;3.00;;
37559;SDS011;23398;50.928;7.084;2024-01-15T10:35:54;3.97;;;3.23;;
37559;SDS011;23398;50.928;7.084;2024-01-15T10:38:21;4.17;;;2.67;;
37559;SDS011;23398;50.928;7.084;2024-01-15T10:40:51;3.17;;;2.47;;
37559;SDS011;23398;50.928;7.084;2024-01-15T10:43:17;2.70;;;2.23;;
37559;SDS011;23398;50.928;7.084;2024-01-15T10:45:46;4.40;;;2.93;;
37559;SDS011;23398;50.928;7.084;2024-01-15T10:48:12;3.20;;;2.28;;
37559;SDS011;23398;50.928;7.084;2024-01-15T10:50:38;3.25;;;2.40;;
37559;SDS011;23398;50.928;7.084;2024-01-15T10:53:04;3.60;;;2.10;;
37559;SDS011;23398;50.928;7.084;2024-01-15T10:55:30;3.27;;;2.27;;
37559;SDS011;23398;50.928;7.084;2024-01-15T10:57:58;3.83;;;2.20;;
37559;SDS011;23398;50.928;7.084;2024-01-15T11:00:24;4.30;;;2.37;;
37559;SDS011;23398;50.928;7.084;2024-01-15T11:02:50;4.20;;;2.50;;
37559;SDS011;23398;50.928;7.084;2024-01-15T11:05:20;2.83;;;1.90;;
37559;SDS011;23398;50.928;7.084;2024-01-15T11:07:47;2.57;;;2.30;;
37559;SDS011;23398;50.928;7.084;2024-01-15T11:13:20;2.55;;;1.95;;
37559;SDS011;23398;50.928;7.084;2024-01-15T11:15:56;2.10;;;1.87;;
37559;SDS011;23398;50.928;7.084;2024-01-15T11:18:30;3.40;;;2.40;;
37559;SDS011;23398;50.928;7.084;2024-01-15T11:28:57;2.40;;;1.83;;
37559;SDS011;23398;50.928;7.084;2024-01-15T11:32:10;2.47;;;1.80;;
37559;SDS011;23398;50.928;7.084;2024-01-15T11:34:10;2.45;;;1.90;;
37559;SDS011;23398;50.928;7.084;2024-01-15T11:41:56;3.92;;;2.15;;
37559;SDS011;23398;50.928;7.084;2024-01-15T11:44:22;2.30;;;1.67;;
37559;SDS011;23398;50.928;7.084;2024-01-15T11:46:58;3.77;;;1.73;;
37559;SDS011;23398;50.928;7.084;2024-01-15T11:52:35;3.90;;;1.90;;
37559;SDS011;23398;50.928;7.084;2024-01-15T11:55:11;2.10;;;1.48;;
37559;SDS011;23398;50.928;7.084;2024-01-15T11:57:57;3.00;;;1.93;;
37559;SDS011;23398;50.928;7.084;2024-01-15T12:00:26;2.40;;;1.90;;
37559;SDS011;23398;50.928;7.084;2024-01-15T12:02:52;2.67;;;1.90;;
37559;SDS011;23398;50.928;7.084;2024-01-15T12:05:18;2.67;;;1.80;;
37559;SDS011;23398;50.928;7.084;2024-01-15T12:07:46;2.70;;;2.00;;
37559;SDS011;23398;50.928;7.084;2024-01-15T12:10:13;2.28;;;2.08;;
37559;SDS011;23398;50.928;7.084;2024-01-15T12:12:47;2.72;;;2.40;;
37559;SDS011;23398;50.928;7.084;2024-01-15T12:15:17;2.67;;;2.38;;
37559;SDS011;23398;50.928;7.084;2024-01-15T12:17:43;4.07;;;2.65;;
37559;SDS011;23398;50.928;7.084;2024-01-15T12:20:10;2.90;;;2.33;;
37559;SDS011;23398;50.928;7.084;2024-01-15T12:22:37;7.15;;;3.20;;
37559;SDS011;23398;50.928;7.084;2024-01-15T12:25:03;3.30;;;2.77;;
37559;SDS011;23398;50.928;7.084;2024-01-15T12:27:29;4.57;;;2.90;;
37559;SDS011;23398;50.928;7.084;2024-01-15T12:29:55;3.60;;;2.63;;
37559;SDS011;23398;50.928;7.084;2024-01-15T12:32:20;3.90;;;2.63;;
37559;SDS011;23398;50.928;7.084;2024-01-15T12:34:49;6.78;;;2.80;;
37559;SDS011;23398;50.928;7.084;2024-01-15T12:37:15;3.53;;;2.97;;
37559;SDS011;23398;50.928;7.084;2024-01-15T12:39:43;5.40;;;2.75;;
37559;SDS011;23398;50.928;7.084;2024-01-15T12:42:09;3.40;;;2.97;;
37559;SDS011;23398;50.928;7.084;2024-01-15T12:44:35;3.40;;;3.03;;
37559;SDS011;23398;50.928;7.084;2024-01-15T12:47:03;5.97;;;3.72;;
37559;SDS011;23398;50.928;7.084;2024-01-15T12:49:29;4.90;;;3.08;;
37559;SDS011;23398;50.928;7.084;2024-01-15T12:51:58;4.80;;;2.80;;
37559;SDS011;23398;50.928;7.084;2024-01-15T12:54:25;4.20;;;2.50;;
37559;SDS011;23398;50.928;7.084;2024-01-15T12:56:51;4.53;;;2.60;;
37559;SDS011;23398;50.928;7.084;2024-01-15T12:59:17;6.35;;;2.72;;
37559;SDS011;23398;50.928;7.084;2024-01-15T13:01:43;5.80;;;3.15;;
37559;SDS011;23398;50.928;7.084;2024-01-15T13:04:10;5.18;;;2.75;;
37559;SDS011;23398;50.928;7.084;2024-01-15T13:06:36;5.97;;;2.92;;
37559;SDS011;23398;50.928;7.084;2024-01-15T13:09:02;4.53;;;2.30;;
37559;SDS011;23398;50.928;7.084;2024-01-15T13:11:31;7.80;;;2.85;;
37559;SDS011;23398;50.928;7.084;2024-01-15T13:13:57;4.15;;;2.13;;
37559;SDS011;23398;50.928;7.084;2024-01-15T13:16:22;5.13;;;2.50;;
37559;SDS011;23398;50.928;7.084;2024-01-15T13:18:48;4.05;;;2.47;;
37559;SDS011;23398;50.928;7.084;2024-01-15T13:21:14;4.75;;;2.38;;
37559;SDS011;23398;50.928;7.084;2024-01-15T13:23:40;4.53;;;2.35;;
37559;SDS011;23398;50.928;7.084;2024-01-15T13:26:06;7.18;;;3.20;;
37559;SDS011;23398;50.928;7.084;2024-01-15T13:28:32;3.38;;;2.50;;
37559;SDS011;23398;50.928;7.084;2024-01-15T13:30:59;4.90;;;2.40;;
37559;SDS011;23398;50.928;7.084;2024-01-15T13:33:25;4.03;;;2.33;;
37559;SDS011;23398;50.928;7.084;2024-01-15T13:35:50;7.00;;;2.45;;
37559;SDS011;23398;50.928;7.084;2024-01-15T13:38:16;4.07;;;2.67;;
37559;SDS011;23398;50.928;7.084;2024-01-15T13:40:41;4.17;;;2.30;;
37559;SDS011;23398;50.928;7.084;2024-01-15T13:43:09;4.75;;;2.17;;
37559;SDS011;23398;50.928;7.084;2024-01-15T13:45:35;3.88;;;2.03;;
37559;SDS011;23398;50.928;7.084;2024-01-15T13:48:02;2.72;;;2.13;;
37559;SDS011;23398;50.928;7.084;2024-01-15T13:50:30;3.22;;;2.00;;
37559;SDS011;23398;50.928;7.084;2024-01-15T13:52:56;3.30;;;1.85;;
37559;SDS011;23398;50.928;7.084;2024-01-15T13:55:22;3.72;;;1.67;;
37559;SDS011;23398;50.928;7.084;2024-01-15T13:57:48;2.20;;;1.60;;
37559;SDS011;23398;50.928;7.084;2024-01-15T14:00:14;2.33;;;1.63;;
37559;SDS011;23398;50.928;7.084;2024-01-15T14:02:43;3.60;;;1.80;;
37559;SDS011;23398;50.928;7.084;2024-01-15T14:05:09;2.80;;;1.50;;
37559;SDS011;23398;50.928;7.084;2024-01-15T14:07:37;3.08;;;1.38;;
37559;SDS011;23398;50.928;7.084;2024-01-15T14:10:04;2.75;;;1.65;;
37559;SDS011;23398;50.928;7.084;2024-01-15T14:12:30;2.03;;;1.25;;
37559;SDS011;23398;50.928;7.084;2024-01-15T14:14:56;1.80;;;1.30;;
37559;SDS011;23398;50.928;7.084;2024-01-15T14:17:22;1.83;;;1.37;;
37559;SDS011;23398;50.928;7.084;2024-01-15T14:19:47;1.75;;;1.20;;
37559;SDS011;23398;50.928;7.084;2024-01-15T14:22:13;1.70;;;1.30;;
37559;SDS011;23398;50.928;7.084;2024-01-15T14:24:38;1.42;;;1.30;;
37559;SDS011;23398;50.928;7.084;2024-01-15T14:27:04;1.85;;;1.20;;
37559;SDS011;23398;50.928;7.084;2024-01-15T14:29:32;2.15;;;1.17;;
37559;SDS011;23398;50.928;7.084;2024-01-15T14:31:57;1.40;;;1.13;;
37559;SDS011;23398;50.928;7.084;2024-01-15T14:34:24;1.60;;;1.25;;
37559;SDS011;23398;50.928;7.084;2024-01-15T14:36:50;2.23;;;1.30;;
37559;SDS011;23398;50.928;7.084;2024-01-15T14:39:18;1.63;;;1.33;;
37559;SDS011;23398;50.928;7.084;2024-01-15T14:41:44;1.33;;;1.20;;
37559;SDS011;23398;50.928;7.084;2024-01-15T14:44:11;2.10;;;1.43;;
37559;SDS011;23398;50.928;7.084;2024-01-15T14:46:37;2.63;;;1.50;;
37559;SDS011;23398;50.928;7.084;2024-01-15T14:49:03;1.52;;;1.40;;
37559;SDS011;23398;50.928;7.084;2024-01-15T14:51:29;1.50;;;1.30;;
37559;SDS011;23398;50.928;7.084;2024-01-15T14:53:54;2.87;;;1.60;;